Time;durP1;ratioP1;P1;durP2;ratioP2;P2;SDS_P1;SDS_P2;PMS_P1;PMS_P2;Temp;Humidity;BMP_temperature;BMP_pressure;BME280_temperature;BME280_humidity;BME280_pressure;Samples;Min_cycle;Max_cycle;Signal;HPM_P1;HPM_P2
2021/11/19 00:01:35;;;;;;;13.05;1.92;;;;;;;;;;5077353;28;20035;-80
2021/11/19 00:04:01;;;;;;;17.30;1.75;;;;;;;;;;5060010;28;20387;-77
2021/11/19 00:06:27;;;;;;;12.55;1.67;;;;;;;;;;5076509;28;20021;-76
2021/11/19 00:08:53;;;;;;;14.20;2.03;;;;;;;;;;5075169;28;20407;-74
2021/11/19 00:11:25;;;;;;;20.88;1.83;;;;;;;;;;5057751;28;20081;-75
2021/11/19 00:13:51;;;;;;;13.95;2.03;;;;;;;;;;5076064;28;20047;-74
2021/11/19 00:16:18;;;;;;;26.13;2.08;;;;;;;;;;5075315;28;20048;-73
2021/11/19 00:18:44;;;;;;;10.60;2.05;;;;;;;;;;5075204;28;20050;-71
2021/11/19 00:21:11;;;;;;;9.63;1.85;;;;;;;;;;5055610;28;20029;-73
2021/11/19 00:23:39;;;;;;;6.82;1.63;;;;;;;;;;5073992;28;20380;-74
2021/11/19 00:26:05;;;;;;;9.60;1.73;;;;;;;;;;5075194;28;20031;-74
2021/11/19 00:28:31;;;;;;;7.82;1.65;;;;;;;;;;5074843;28;20020;-75
2021/11/19 00:30:57;;;;;;;10.63;1.67;;;;;;;;;;5075131;28;20356;-74
2021/11/19 00:33:24;;;;;;;7.13;1.42;;;;;;;;;;5074939;28;20052;-75
2021/11/19 00:35:51;;;;;;;9.07;1.60;;;;;;;;;;5070672;28;20036;-75
2021/11/19 00:38:18;;;;;;;9.60;1.60;;;;;;;;;;5055161;28;20029;-77
2021/11/19 00:40:48;;;;;;;6.00;1.30;;;;;;;;;;5055285;28;20021;-77
2021/11/19 00:43:17;;;;;;;5.88;1.45;;;;;;;;;;5054835;28;20029;-75
2021/11/19 00:45:43;;;;;;;14.05;1.63;;;;;;;;;;5055024;28;20025;-74
2021/11/19 00:48:10;;;;;;;9.57;1.33;;;;;;;;;;5054999;28;20025;-74
2021/11/19 00:50:38;;;;;;;9.98;1.83;;;;;;;;;;5054683;28;20025;-75
2021/11/19 00:53:04;;;;;;;11.43;1.60;;;;;;;;;;5054890;28;20021;-75
2021/11/19 00:55:31;;;;;;;14.70;2.00;;;;;;;;;;5054789;28;20129;-75
2021/11/19 00:57:57;;;;;;;10.38;1.55;;;;;;;;;;5054771;28;20032;-75
2021/11/19 01:00:28;;;;;;;6.22;1.48;;;;;;;;;;5054564;28;20025;-76
2021/11/19 01:02:54;;;;;;;5.43;1.38;;;;;;;;;;5054583;28;20143;-73
2021/11/19 01:05:20;;;;;;;16.80;2.08;;;;;;;;;;5054274;28;20021;-76
2021/11/19 01:07:46;;;;;;;6.75;1.52;;;;;;;;;;5054652;28;20025;-75
2021/11/19 01:10:14;;;;;;;7.30;1.42;;;;;;;;;;5054574;28;20024;-76
2021/11/19 01:12:41;;;;;;;7.55;1.55;;;;;;;;;;5069488;28;20047;-74
2021/11/19 01:15:15;;;;;;;14.05;1.50;;;;;;;;;;5073938;28;20040;-75
2021/11/19 01:17:46;;;;;;;9.45;1.70;;;;;;;;;;5074409;28;20035;-74
2021/11/19 01:20:42;;;;;;;11.43;1.58;;;;;;;;;;5056373;28;20383;-75
2021/11/19 01:23:10;;;;;;;5.95;1.45;;;;;;;;;;5039769;28;20028;-76
2021/11/19 01:25:37;;;;;;;12.63;1.50;;;;;;;;;;5074377;28;20059;-75
2021/11/19 01:28:03;;;;;;;8.07;1.67;;;;;;;;;;5056264;28;20028;-75
2021/11/19 01:30:32;;;;;;;3.80;1.35;;;;;;;;;;5073849;28;20473;-75
2021/11/19 01:32:58;;;;;;;7.97;1.45;;;;;;;;;;5074218;28;20056;-75
2021/11/19 01:35:25;;;;;;;6.82;1.40;;;;;;;;;;5073751;28;20069;-74
2021/11/19 01:37:51;;;;;;;10.13;1.50;;;;;;;;;;5072837;28;20077;-76
2021/11/19 01:40:18;;;;;;;4.15;1.35;;;;;;;;;;5073876;28;20033;-74
2021/11/19 01:42:48;;;;;;;4.57;1.25;;;;;;;;;;5074110;28;20028;-74
2021/11/19 01:45:19;;;;;;;6.28;1.70;;;;;;;;;;5074012;28;20032;-76
2021/11/19 01:47:47;;;;;;;7.55;1.55;;;;;;;;;;5073693;28;20025;-74
2021/11/19 01:50:22;;;;;;;8.35;1.75;;;;;;;;;;5073652;28;20029;-75
2021/11/19 01:53:08;;;;;;;11.18;1.60;;;;;;;;;;5073487;28;20059;-72
2021/11/19 01:55:37;;;;;;;5.78;1.35;;;;;;;;;;5045668;28;20044;-77
2021/11/19 01:58:05;;;;;;;6.90;1.52;;;;;;;;;;5073533;28;20119;-77
2021/11/19 02:00:34;;;;;;;15.02;1.80;;;;;;;;;;5073848;28;20079;-77
2021/11/19 02:03:00;;;;;;;6.15;1.55;;;;;;;;;;5073641;28;20029;-76
2021/11/19 02:05:29;;;;;;;6.95;1.45;;;;;;;;;;5073700;28;20380;-76
2021/11/19 02:07:57;;;;;;;3.13;1.48;;;;;;;;;;5073472;28;20031;-76
2021/11/19 02:10:26;;;;;;;5.38;1.80;;;;;;;;;;5072709;28;20075;-75
2021/11/19 02:12:58;;;;;;;4.40;1.58;;;;;;;;;;5073400;28;20522;-75
2021/11/19 02:15:31;;;;;;;5.03;1.30;;;;;;;;;;5055138;28;20054;-74
2021/11/19 02:17:57;;;;;;;;;;;;;;;;;;5073839;28;20028;-74
2021/11/19 02:20:36;;;;;;;6.03;1.30;;;;;;;;;;5073328;28;20000;-74
2021/11/19 02:23:08;;;;;;;4.95;1.52;;;;;;;;;;5054977;28;20036;-71
2021/11/19 02:25:41;;;;;;;6.03;1.55;;;;;;;;;;5055343;28;20024;-72
2021/11/19 02:28:09;;;;;;;;;;;;;;;;;;5073176;28;20368;-71
2021/11/19 02:30:54;;;;;;;2.15;1.10;;;;;;;;;;5073151;28;19908;-74
2021/11/19 02:33:20;;;;;;;14.75;1.80;;;;;;;;;;5073178;28;20020;-77
2021/11/19 02:35:49;;;;;;;13.38;1.90;;;;;;;;;;5073321;28;20115;-68
2021/11/19 02:38:17;;;;;;;6.80;1.85;;;;;;;;;;5072256;28;20020;-69
2021/11/19 02:40:44;;;;;;;13.27;2.17;;;;;;;;;;5061146;28;20021;-67
2021/11/19 02:43:14;;;;;;;7.95;1.63;;;;;;;;;;5068264;28;20472;-75
2021/11/19 02:45:42;;;;;;;8.45;1.65;;;;;;;;;;5035130;28;20047;-74
2021/11/19 02:48:11;;;;;;;12.80;1.50;;;;;;;;;;5054562;28;20025;-75
2021/11/19 02:50:37;;;;;;;11.65;1.83;;;;;;;;;;5057332;28;20028;-75
2021/11/19 02:53:05;;;;;;;11.20;1.90;;;;;;;;;;5057101;28;20025;-75
2021/11/19 02:55:32;;;;;;;6.10;1.92;;;;;;;;;;5056787;28;20032;-73
2021/11/19 02:57:59;;;;;;;3.75;1.42;;;;;;;;;;5056897;28;20060;-75
2021/11/19 03:00:27;;;;;;;24.13;1.90;;;;;;;;;;5070482;28;20425;-77
2021/11/19 03:02:53;;;;;;;4.38;1.73;;;;;;;;;;5078726;28;20116;-77
2021/11/19 03:05:20;;;;;;;5.80;1.75;;;;;;;;;;5077626;28;20059;-76
2021/11/19 03:07:46;;;;;;;6.53;1.60;;;;;;;;;;5077830;28;20020;-76
2021/11/19 03:10:16;;;;;;;11.73;2.08;;;;;;;;;;5078146;28;20028;-76
2021/11/19 03:12:42;;;;;;;8.00;1.70;;;;;;;;;;5059685;28;20058;-76
2021/11/19 03:15:12;;;;;;;9.45;1.98;;;;;;;;;;5077395;28;20102;-76
2021/11/19 03:17:38;;;;;;;5.13;1.45;;;;;;;;;;5077379;28;20031;-76
2021/11/19 03:20:05;;;;;;;7.25;1.98;;;;;;;;;;5076605;28;20029;-77
2021/11/19 03:22:31;;;;;;;10.77;1.92;;;;;;;;;;5077503;28;20099;-77
2021/11/19 03:24:57;;;;;;;7.90;1.80;;;;;;;;;;5077813;28;20094;-76
2021/11/19 03:27:24;;;;;;;12.05;1.92;;;;;;;;;;5077922;28;20035;-77
2021/11/19 03:29:50;;;;;;;14.05;2.28;;;;;;;;;;5077615;28;20055;-77
2021/11/19 03:32:20;;;;;;;16.67;2.20;;;;;;;;;;5077295;28;20052;-77
2021/11/19 03:34:46;;;;;;;6.15;2.03;;;;;;;;;;5076480;28;20024;-77
2021/11/19 03:37:13;;;;;;;13.02;2.28;;;;;;;;;;5077536;28;20033;-66
2021/11/19 03:39:39;;;;;;;7.07;1.80;;;;;;;;;;5077114;28;20099;-76
2021/11/19 03:42:09;;;;;;;8.85;2.80;;;;;;;;;;5077317;28;20032;-77
2021/11/19 03:44:47;;;;;;;6.03;2.08;;;;;;;;;;5076987;28;20111;-77
2021/11/19 03:47:18;;;;;;;8.52;1.80;;;;;;;;;;5077099;28;20086;-77
2021/11/19 03:49:45;;;;;;;7.43;2.15;;;;;;;;;;5076589;28;20028;-76
2021/11/19 03:52:17;;;;;;;7.13;2.20;;;;;;;;;;5076230;28;20483;-76
2021/11/19 03:54:45;;;;;;;8.88;2.15;;;;;;;;;;5076012;28;20021;-74
2021/11/19 03:57:12;;;;;;;6.38;2.38;;;;;;;;;;5076444;28;20040;-76
2021/11/19 03:59:38;;;;;;;6.20;2.38;;;;;;;;;;5075171;28;20081;-76
2021/11/19 04:02:05;;;;;;;8.98;2.17;;;;;;;;;;5075790;28;20033;-76
2021/11/19 04:04:33;;;;;;;6.35;2.13;;;;;;;;;;5075779;28;20077;-74
2021/11/19 04:07:00;;;;;;;6.68;2.58;;;;;;;;;;5076052;28;20142;-75
2021/11/19 04:09:27;;;;;;;6.78;2.08;;;;;;;;;;5076241;28;20016;-78
2021/11/19 04:11:54;;;;;;;3.72;1.67;;;;;;;;;;5078994;28;20130;-78
2021/11/19 04:14:20;;;;;;;7.72;1.70;;;;;;;;;;5079093;28;20020;-79
2021/11/19 04:16:48;;;;;;;4.82;1.80;;;;;;;;;;5079172;28;20531;-78
2021/11/19 04:19:15;;;;;;;6.93;2.10;;;;;;;;;;5075678;28;21967;-78
2021/11/19 04:21:42;;;;;;;9.23;2.28;;;;;;;;;;5057708;28;20067;-77
2021/11/19 04:24:09;;;;;;;8.18;1.85;;;;;;;;;;5057469;28;20040;-78
2021/11/19 04:26:37;;;;;;;5.72;1.75;;;;;;;;;;5039050;28;20029;-77
2021/11/19 04:29:04;;;;;;;5.10;1.70;;;;;;;;;;5038946;28;20018;-77
2021/11/19 04:31:30;;;;;;;8.98;2.25;;;;;;;;;;5056317;28;20029;-76
2021/11/19 04:33:57;;;;;;;4.03;1.75;;;;;;;;;;5056237;28;20021;-77
2021/11/19 04:36:23;;;;;;;7.63;1.88;;;;;;;;;;5037377;28;20029;-77
2021/11/19 04:38:49;;;;;;;10.15;2.20;;;;;;;;;;5038326;28;20029;-77
2021/11/19 04:41:16;;;;;;;6.43;2.10;;;;;;;;;;5055821;28;20024;-76
2021/11/19 04:43:43;;;;;;;5.43;2.10;;;;;;;;;;5055008;28;20469;-75
2021/11/19 04:46:09;;;;;;;4.18;1.90;;;;;;;;;;5054696;28;20025;-76
2021/11/19 04:48:36;;;;;;;7.35;2.28;;;;;;;;;;5055236;28;20021;-78
2021/11/19 04:51:04;;;;;;;3.97;1.50;;;;;;;;;;5055757;28;20029;-77
2021/11/19 04:53:31;;;;;;;7.63;2.13;;;;;;;;;;5066471;28;20107;-76
2021/11/19 04:55:57;;;;;;;8.35;1.80;;;;;;;;;;5074558;28;20441;-77
2021/11/19 04:58:23;;;;;;;5.45;1.98;;;;;;;;;;5074933;28;20031;-75
2021/11/19 05:00:55;;;;;;;5.25;1.80;;;;;;;;;;5075040;28;20025;-77
2021/11/19 05:03:21;;;;;;;6.30;2.30;;;;;;;;;;5057753;28;20028;-76
2021/11/19 05:05:49;;;;;;;7.93;2.10;;;;;;;;;;5056816;28;20055;-77
2021/11/19 05:08:15;;;;;;;9.38;2.10;;;;;;;;;;5075103;28;20070;-77
2021/11/19 05:10:42;;;;;;;5.60;1.83;;;;;;;;;;5056930;28;20482;-77
2021/11/19 05:13:08;;;;;;;4.88;1.70;;;;;;;;;;5077429;28;20052;-78
2021/11/19 05:15:34;;;;;;;5.20;1.80;;;;;;;;;;5076578;28;20565;-78
2021/11/19 05:18:00;;;;;;;6.22;1.85;;;;;;;;;;5076390;28;20029;-78
2021/11/19 05:20:26;;;;;;;6.97;2.35;;;;;;;;;;5075665;28;20073;-76
2021/11/19 05:22:54;;;;;;;2.97;1.65;;;;;;;;;;5074449;28;20380;-76
2021/11/19 05:25:22;;;;;;;8.00;1.88;;;;;;;;;;5074112;28;20031;-76
2021/11/19 05:27:49;;;;;;;4.93;1.63;;;;;;;;;;5074157;28;20130;-77
2021/11/19 05:30:15;;;;;;;3.85;1.55;;;;;;;;;;5074724;28;20031;-77
2021/11/19 05:32:42;;;;;;;5.82;1.73;;;;;;;;;;5076280;28;20074;-76
2021/11/19 05:35:09;;;;;;;6.70;1.52;;;;;;;;;;5074723;28;20440;-78
2021/11/19 05:37:35;;;;;;;5.28;1.88;;;;;;;;;;5074874;28;20054;-77
2021/11/19 05:40:01;;;;;;;6.97;1.73;;;;;;;;;;5075144;28;20024;-76
2021/11/19 05:42:27;;;;;;;3.88;1.70;;;;;;;;;;5057326;28;20448;-77
2021/11/19 05:44:54;;;;;;;5.40;1.60;;;;;;;;;;5075740;28;20044;-78
2021/11/19 05:47:20;;;;;;;6.00;1.58;;;;;;;;;;5075169;28;20028;-77
2021/11/19 05:49:46;;;;;;;5.15;1.50;;;;;;;;;;5055971;28;20025;-76
2021/11/19 05:52:12;;;;;;;6.95;1.77;;;;;;;;;;5073814;28;20523;-77
2021/11/19 05:54:39;;;;;;;5.32;1.75;;;;;;;;;;5056614;28;20029;-79
2021/11/19 05:57:06;;;;;;;4.13;1.60;;;;;;;;;;5074540;28;20029;-78
2021/11/19 05:59:33;;;;;;;9.52;2.00;;;;;;;;;;5074763;28;20032;-78
2021/11/19 06:01:59;;;;;;;13.95;1.98;;;;;;;;;;5056485;28;20115;-76
2021/11/19 06:04:25;;;;;;;4.72;1.80;;;;;;;;;;5073546;28;20029;-76
2021/11/19 06:06:51;;;;;;;5.82;2.03;;;;;;;;;;5073234;28;20036;-74
2021/11/19 06:09:27;;;;;;;16.75;2.20;;;;;;;;;;5074322;28;20017;-76
2021/11/19 06:11:54;;;;;;;19.85;2.28;;;;;;;;;;5075615;28;20033;-72
2021/11/19 06:14:35;;;;;;;13.40;1.80;;;;;;;;;;5074246;28;20111;-72
2021/11/19 06:17:03;;;;;;;41.63;2.55;;;;;;;;;;5074302;28;20044;-68
2021/11/19 06:19:31;;;;;;;24.38;2.40;;;;;;;;;;5074185;28;20040;-66
2021/11/19 06:22:00;;;;;;;26.83;2.55;;;;;;;;;;5071052;28;20075;-64
2021/11/19 06:24:34;;;;;;;25.35;2.40;;;;;;;;;;5071134;28;20024;-64
2021/11/19 06:27:01;;;;;;;14.68;2.40;;;;;;;;;;5070838;28;20683;-64
2021/11/19 06:29:27;;;;;;;10.02;1.70;;;;;;;;;;5072370;28;20039;-64
2021/11/19 06:31:55;;;;;;;8.77;2.03;;;;;;;;;;5072345;28;20068;-64
2021/11/19 06:34:22;;;;;;;9.73;1.80;;;;;;;;;;5072348;28;20508;-63
2021/11/19 06:36:48;;;;;;;23.45;2.35;;;;;;;;;;5071391;28;20044;-64
2021/11/19 06:39:15;;;;;;;9.38;2.33;;;;;;;;;;5071816;28;20025;-64
2021/11/19 06:41:42;;;;;;;13.88;1.77;;;;;;;;;;5053726;28;20089;-65
2021/11/19 06:44:09;;;;;;;10.10;1.80;;;;;;;;;;5069682;28;20082;-64
2021/11/19 06:46:35;;;;;;;17.40;2.65;;;;;;;;;;5071630;28;20480;-70
2021/11/19 06:49:01;;;;;;;10.48;2.03;;;;;;;;;;5071180;28;20502;-68
2021/11/19 06:51:27;;;;;;;7.60;1.58;;;;;;;;;;5071750;28;20024;-67
2021/11/19 06:53:54;;;;;;;14.77;2.00;;;;;;;;;;5052733;28;20055;-67
2021/11/19 06:56:20;;;;;;;14.27;2.40;;;;;;;;;;5071381;28;20036;-69
2021/11/19 06:58:47;;;;;;;6.85;1.90;;;;;;;;;;5071419;28;20057;-67
2021/11/19 07:01:14;;;;;;;10.82;1.77;;;;;;;;;;5071451;28;20044;-67
2021/11/19 07:03:40;;;;;;;10.70;2.17;;;;;;;;;;5070635;28;20036;-67
2021/11/19 07:06:06;;;;;;;9.77;2.00;;;;;;;;;;5071647;28;20028;-68
2021/11/19 07:08:32;;;;;;;13.20;2.20;;;;;;;;;;5071194;28;20107;-68
2021/11/19 07:11:01;;;;;;;7.25;1.83;;;;;;;;;;5070861;28;20017;-67
2021/11/19 07:13:28;;;;;;;7.13;1.40;;;;;;;;;;5071340;28;20111;-67
2021/11/19 07:15:54;;;;;;;11.27;2.00;;;;;;;;;;5071354;28;20049;-65
2021/11/19 07:18:20;;;;;;;12.43;1.90;;;;;;;;;;5054449;28;20025;-66
2021/11/19 07:20:47;;;;;;;9.75;1.73;;;;;;;;;;5071853;28;20551;-63
2021/11/19 07:23:13;;;;;;;4.47;1.38;;;;;;;;;;5081463;28;20028;-65
2021/11/19 07:25:40;;;;;;;4.78;1.65;;;;;;;;;;5083246;28;20032;-63
2021/11/19 07:28:07;;;;;;;5.60;1.45;;;;;;;;;;5071277;28;20021;-67
2021/11/19 07:30:38;;;;;;;9.57;1.92;;;;;;;;;;5071080;28;20032;-63
2021/11/19 07:33:04;;;;;;;61.42;3.55;;;;;;;;;;5070564;28;20039;-63
2021/11/19 07:35:30;;;;;;;26.27;2.90;;;;;;;;;;5072479;28;20422;-64
2021/11/19 07:37:56;;;;;;;34.53;2.45;;;;;;;;;;5074164;28;20435;-63
2021/11/19 07:40:23;;;;;;;22.88;3.63;;;;;;;;;;5074427;28;20028;-64
2021/11/19 07:42:50;;;;;;;15.55;1.80;;;;;;;;;;5074311;28;20067;-64
2021/11/19 07:45:16;;;;;;;24.63;2.10;;;;;;;;;;5074163;28;20028;-63
2021/11/19 07:47:43;;;;;;;26.02;2.60;;;;;;;;;;5055825;28;20081;-65
2021/11/19 07:50:11;;;;;;;30.92;3.05;;;;;;;;;;5072655;28;20514;-64
2021/11/19 07:52:37;;;;;;;18.73;2.05;;;;;;;;;;5074006;28;20025;-64
2021/11/19 07:55:04;;;;;;;14.70;2.28;;;;;;;;;;5067760;28;20035;-65
2021/11/19 07:57:30;;;;;;;18.08;2.13;;;;;;;;;;5080420;28;20024;-64
2021/11/19 07:59:56;;;;;;;16.98;2.03;;;;;;;;;;5094773;28;20059;-63
2021/11/19 08:02:22;;;;;;;14.68;2.55;;;;;;;;;;5066114;28;20538;-64
2021/11/19 08:04:48;;;;;;;23.17;2.13;;;;;;;;;;5074717;28;20035;-64
2021/11/19 08:07:15;;;;;;;14.50;1.83;;;;;;;;;;5074240;28;20373;-64
2021/11/19 08:09:41;;;;;;;13.52;2.10;;;;;;;;;;5073514;28;20036;-64
2021/11/19 08:12:07;;;;;;;25.05;2.17;;;;;;;;;;5094802;28;20032;-63
2021/11/19 08:14:33;;;;;;;15.95;2.00;;;;;;;;;;5094262;28;20044;-63
2021/11/19 08:17:12;;;;;;;8.50;1.90;;;;;;;;;;5080849;28;20029;-64
2021/11/19 08:19:44;;;;;;;10.65;1.52;;;;;;;;;;5073174;28;20025;-64
2021/11/19 08:22:11;;;;;;;12.77;1.65;;;;;;;;;;5074422;28;20036;-64
2021/11/19 08:24:37;;;;;;;14.32;1.92;;;;;;;;;;5074049;28;20029;-64
2021/11/19 08:27:09;;;;;;;8.90;1.52;;;;;;;;;;5076743;28;20036;-64
2021/11/19 08:29:37;;;;;;;6.18;1.42;;;;;;;;;;5093384;28;20016;-63
2021/11/19 08:32:04;;;;;;;11.70;1.60;;;;;;;;;;5073731;28;20032;-65
2021/11/19 08:34:31;;;;;;;7.63;1.88;;;;;;;;;;5074245;28;20047;-65
2021/11/19 08:36:57;;;;;;;10.57;1.98;;;;;;;;;;5073929;28;20056;-65
2021/11/19 08:39:24;;;;;;;14.48;1.52;;;;;;;;;;5074122;28;20020;-64
2021/11/19 08:41:50;;;;;;;10.93;1.60;;;;;;;;;;5073813;28;20025;-64
2021/11/19 08:44:17;;;;;;;8.38;1.58;;;;;;;;;;5054620;28;20063;-64
2021/11/19 08:46:44;;;;;;;4.85;1.30;;;;;;;;;;5055443;28;20036;-64
2021/11/19 08:49:12;;;;;;;8.95;1.95;;;;;;;;;;5073883;28;20024;-64
2021/11/19 08:51:38;;;;;;;12.38;1.30;;;;;;;;;;5073717;28;20033;-64
2021/11/19 08:54:06;;;;;;;9.82;1.33;;;;;;;;;;5073804;28;20094;-65
2021/11/19 08:56:33;;;;;;;5.65;1.48;;;;;;;;;;5073367;28;20032;-64
2021/11/19 08:59:01;;;;;;;9.77;1.60;;;;;;;;;;5072003;28;20101;-64
2021/11/19 09:01:28;;;;;;;10.35;1.55;;;;;;;;;;5078526;28;20065;-64
2021/11/19 09:03:53;;;;;;;18.10;2.03;;;;;;;;;;5080041;28;20102;-64
2021/11/19 09:06:20;;;;;;;6.18;1.23;;;;;;;;;;5073147;28;20434;-64
2021/11/19 09:08:46;;;;;;;8.25;1.88;;;;;;;;;;5073762;28;20103;-68
2021/11/19 09:11:14;;;;;;;9.05;1.90;;;;;;;;;;5073831;28;20051;-70
2021/11/19 09:13:41;;;;;;;10.98;1.70;;;;;;;;;;5073583;28;20012;-64
2021/11/19 09:16:08;;;;;;;8.93;1.98;;;;;;;;;;5065807;28;20052;-69
2021/11/19 09:18:34;;;;;;;4.65;1.40;;;;;;;;;;5073662;28;20033;-68
2021/11/19 09:21:18;;;;;;;22.73;1.50;;;;;;;;;;5073544;28;20157;-69
2021/11/19 09:23:46;;;;;;;10.77;1.38;;;;;;;;;;5073549;28;20372;-67
2021/11/19 09:26:14;;;;;;;6.15;1.45;;;;;;;;;;5073315;28;20458;-65
2021/11/19 09:28:42;;;;;;;5.90;1.70;;;;;;;;;;5073329;28;20341;-68
2021/11/19 09:31:09;;;;;;;6.93;2.15;;;;;;;;;;5073233;28;20025;-68
2021/11/19 09:33:35;;;;;;;7.03;2.08;;;;;;;;;;5073396;28;20024;-66
2021/11/19 09:36:01;;;;;;;10.10;1.60;;;;;;;;;;5073475;28;20031;-68
2021/11/19 09:38:28;;;;;;;6.45;2.00;;;;;;;;;;5073431;28;20025;-68
2021/11/19 09:40:57;;;;;;;9.60;2.35;;;;;;;;;;5073323;28;20059;-67
2021/11/19 09:43:43;;;;;;;8.57;2.55;;;;;;;;;;5073307;28;20036;-65
2021/11/19 09:46:28;;;;;;;9.93;2.40;;;;;;;;;;5055097;28;20036;-67
2021/11/19 09:49:08;;;;;;;12.90;2.03;;;;;;;;;;5073354;28;20505;-69
2021/11/19 09:51:57;;;;;;;14.02;2.30;;;;;;;;;;5072711;28;20062;-69
2021/11/19 09:54:42;;;;;;;20.13;3.10;;;;;;;;;;5073207;28;20028;-70
2021/11/19 09:57:17;;;;;;;7.68;2.28;;;;;;;;;;5072567;28;20130;-69
2021/11/19 09:59:43;;;;;;;7.85;2.00;;;;;;;;;;5055219;28;20033;-71
2021/11/19 10:02:18;;;;;;;9.07;2.45;;;;;;;;;;5083624;28;20016;-65
2021/11/19 10:04:59;;;;;;;13.35;2.45;;;;;;;;;;5092373;28;20061;-65
2021/11/19 10:07:37;;;;;;;9.82;1.98;;;;;;;;;;5076254;28;20093;-65
2021/11/19 10:10:06;;;;;;;8.90;2.33;;;;;;;;;;5089858;28;20047;-65
2021/11/19 10:12:37;;;;;;;7.15;2.00;;;;;;;;;;5056965;28;20032;-64
2021/11/19 10:15:10;;;;;;;13.70;2.53;;;;;;;;;;5087691;28;20094;-63
2021/11/19 10:17:42;;;;;;;8.10;2.50;;;;;;;;;;5076298;28;20139;-65
2021/11/19 10:20:10;;;;;;;12.50;2.65;;;;;;;;;;5079557;28;20026;-64
2021/11/19 10:22:39;;;;;;;11.15;2.03;;;;;;;;;;5092650;28;20027;-64
2021/11/19 10:25:17;;;;;;;8.90;2.03;;;;;;;;;;5092606;28;20024;-66
2021/11/19 10:27:45;;;;;;;11.40;2.28;;;;;;;;;;5092310;28;20047;-64
2021/11/19 10:30:14;;;;;;;11.27;2.55;;;;;;;;;;5072261;28;20696;-64
2021/11/19 10:32:40;;;;;;;15.18;2.53;;;;;;;;;;5060074;28;20033;-64
2021/11/19 10:35:09;;;;;;;17.30;2.25;;;;;;;;;;5051862;28;20436;-63
2021/11/19 10:37:54;;;;;;;15.48;2.50;;;;;;;;;;5050842;28;20075;-62
2021/11/19 10:40:35;;;;;;;14.75;2.40;;;;;;;;;;5061114;28;20020;-64
2021/11/19 10:43:25;;;;;;;11.68;2.42;;;;;;;;;;5072164;28;20068;-62
2021/11/19 10:46:01;;;;;;;16.15;2.55;;;;;;;;;;5080366;28;20044;-64
2021/11/19 10:48:35;;;;;;;8.93;2.45;;;;;;;;;;5092156;28;20104;-64
2021/11/19 10:51:06;;;;;;;31.80;2.80;;;;;;;;;;5092112;28;20028;-61
2021/11/19 10:53:48;;;;;;;29.58;3.20;;;;;;;;;;5079765;28;20024;-60
2021/11/19 10:56:33;;;;;;;16.63;2.72;;;;;;;;;;5071783;28;20559;-60
2021/11/19 10:59:22;;;;;;;42.70;3.22;;;;;;;;;;5071860;28;20463;-61
2021/11/19 11:02:01;;;;;;;25.50;3.25;;;;;;;;;;5072447;28;20029;-61
2021/11/19 11:04:37;;;;;;;30.52;2.85;;;;;;;;;;5071968;28;20075;-60
2021/11/19 11:07:19;;;;;;;47.58;3.00;;;;;;;;;;5054560;28;20033;-60
2021/11/19 11:09:48;;;;;;;57.58;3.22;;;;;;;;;;5056071;28;20029;-60
2021/11/19 11:12:14;;;;;;;79.07;3.42;;;;;;;;;;5075651;28;20371;-61
2021/11/19 11:14:42;;;;;;;40.70;3.10;;;;;;;;;;5075540;28;20408;-67
2021/11/19 11:17:34;;;;;;;38.30;3.35;;;;;;;;;;5074041;28;20054;-59
2021/11/19 11:20:02;;;;;;;36.63;2.60;;;;;;;;;;5080265;28;20043;-61
2021/11/19 11:22:34;;;;;;;19.23;2.42;;;;;;;;;;5095736;28;20408;-59
2021/11/19 11:25:02;;;;;;;27.85;2.83;;;;;;;;;;5095480;28;20024;-59
2021/11/19 11:27:31;;;;;;;15.30;1.88;;;;;;;;;;5076147;28;20124;-62
2021/11/19 11:29:59;;;;;;;13.73;1.83;;;;;;;;;;5075380;28;20025;-60
2021/11/19 11:32:31;;;;;;;16.70;2.17;;;;;;;;;;5075145;28;20048;-62
2021/11/19 11:35:12;;;;;;;13.52;2.35;;;;;;;;;;5075069;28;20468;-61
2021/11/19 11:37:48;;;;;;;15.75;2.10;;;;;;;;;;5075124;28;20103;-61
2021/11/19 11:40:19;;;;;;;12.80;1.98;;;;;;;;;;5074867;28;20044;-61
2021/11/19 11:42:47;;;;;;;13.73;1.65;;;;;;;;;;5073120;28;20037;-60
2021/11/19 11:45:30;;;;;;;8.05;1.88;;;;;;;;;;5056473;28;20033;-61
2021/11/19 11:48:04;;;;;;;9.68;1.75;;;;;;;;;;5072428;28;20036;-61
2021/11/19 11:50:30;;;;;;;9.02;1.15;;;;;;;;;;5073545;28;20479;-61
2021/11/19 11:52:59;;;;;;;9.77;1.60;;;;;;;;;;5074328;28;20033;-58
2021/11/19 11:55:28;;;;;;;4.68;1.70;;;;;;;;;;5053971;28;20033;-60
2021/11/19 11:57:54;;;;;;;8.73;1.20;;;;;;;;;;5074399;28;20028;-61
2021/11/19 12:00:41;;;;;;;15.30;2.05;;;;;;;;;;5074865;28;20021;-61
2021/11/19 12:03:07;;;;;;;9.77;1.50;;;;;;;;;;5075161;28;20066;-62
2021/11/19 12:05:46;;;;;;;7.07;1.42;;;;;;;;;;5073907;28;20032;-61
2021/11/19 12:08:13;;;;;;;15.15;1.40;;;;;;;;;;5073938;28;20036;-61
2021/11/19 12:10:57;;;;;;;9.98;1.50;;;;;;;;;;5073928;28;20044;-61
2021/11/19 12:13:23;;;;;;;7.93;1.17;;;;;;;;;;5058372;28;20056;-63
2021/11/19 12:16:08;;;;;;;15.07;1.67;;;;;;;;;;5058381;28;20049;-66
2021/11/19 12:18:50;;;;;;;17.95;2.00;;;;;;;;;;5072387;28;20078;-68
2021/11/19 12:21:28;;;;;;;18.25;2.08;;;;;;;;;;5055181;28;20063;-67
2021/11/19 12:24:01;;;;;;;8.50;1.63;;;;;;;;;;5072288;28;20456;-67
2021/11/19 12:26:36;;;;;;;14.77;1.70;;;;;;;;;;5073896;28;20029;-67
2021/11/19 12:29:05;;;;;;;15.07;2.20;;;;;;;;;;5074449;28;20025;-67
2021/11/19 12:31:34;;;;;;;22.80;1.90;;;;;;;;;;5074081;28;20070;-67
2021/11/19 12:34:19;;;;;;;12.23;1.98;;;;;;;;;;5073911;28;20528;-67
2021/11/19 12:36:50;;;;;;;22.25;2.75;;;;;;;;;;5073507;28;20029;-66
2021/11/19 12:39:16;;;;;;;59.28;3.08;;;;;;;;;;5074117;28;20031;-63
2021/11/19 12:42:06;;;;;;;23.23;2.70;;;;;;;;;;5073512;28;20524;-64
2021/11/19 12:44:40;;;;;;;26.08;1.92;;;;;;;;;;5070773;28;20091;-64
2021/11/19 12:47:20;;;;;;;12.73;1.67;;;;;;;;;;5072787;28;20120;-63
2021/11/19 12:50:04;;;;;;;16.85;2.00;;;;;;;;;;5073335;28;20050;-63
2021/11/19 12:52:30;;;;;;;14.52;1.90;;;;;;;;;;5072532;28;20123;-64
2021/11/19 12:54:57;;;;;;;18.33;1.85;;;;;;;;;;5072954;28;20099;-63
2021/11/19 12:57:35;;;;;;;14.02;2.00;;;;;;;;;;5073423;28;20070;-63
2021/11/19 13:00:04;;;;;;;19.48;1.85;;;;;;;;;;5073401;28;20082;-63
2021/11/19 13:02:47;;;;;;;32.15;2.10;;;;;;;;;;5074170;28;20020;-63
2021/11/19 13:05:16;;;;;;;16.48;2.10;;;;;;;;;;5074013;28;20028;-63
2021/11/19 13:07:45;;;;;;;7.63;1.13;;;;;;;;;;5073925;28;20039;-63
2021/11/19 13:10:17;;;;;;;10.60;1.48;;;;;;;;;;5072748;28;20028;-65
2021/11/19 13:13:01;;;;;;;10.50;1.45;;;;;;;;;;5070890;28;20029;-63
2021/11/19 13:15:29;;;;;;;6.43;1.20;;;;;;;;;;5073098;28;20051;-64
2021/11/19 13:17:58;;;;;;;10.82;2.03;;;;;;;;;;5072837;28;20029;-62
2021/11/19 13:20:47;;;;;;;11.40;1.35;;;;;;;;;;5053638;28;20044;-62
2021/11/19 13:23:37;;;;;;;12.70;1.33;;;;;;;;;;5067570;28;20056;-63
2021/11/19 13:26:13;;;;;;;15.60;1.75;;;;;;;;;;5070951;28;20074;-63
2021/11/19 13:28:48;;;;;;;10.02;1.20;;;;;;;;;;5073481;28;20086;-63
2021/11/19 13:31:23;;;;;;;9.23;1.50;;;;;;;;;;5073505;28;20028;-63
2021/11/19 13:34:02;;;;;;;12.07;1.30;;;;;;;;;;5072244;28;20028;-63
2021/11/19 13:36:37;;;;;;;8.80;1.52;;;;;;;;;;5073600;28;20024;-63
2021/11/19 13:39:06;;;;;;;5.90;1.23;;;;;;;;;;5073149;28;20018;-63
2021/11/19 13:41:31;;;;;;;10.00;1.63;;;;;;;;;;5073031;28;20432;-63
2021/11/19 13:43:57;;;;;;;5.65;1.50;;;;;;;;;;5073447;28;20110;-64
2021/11/19 13:46:53;;;;;;;5.75;1.20;;;;;;;;;;5072187;28;20372;-63
2021/11/19 13:49:46;;;;;;;13.02;1.08;;;;;;;;;;5038564;28;20387;-63
2021/11/19 13:52:12;;;;;;;;;;;;;;;;;;5073436;28;20039;-63
2021/11/19 13:54:40;;;;;;;8.23;1.33;;;;;;;;;;5072797;28;19912;-63
2021/11/19 13:57:06;;;;;;;4.32;1.00;;;;;;;;;;5054951;28;20020;-63
2021/11/19 13:59:52;;;;;;;4.45;1.17;;;;;;;;;;5073281;28;20017;-63
2021/11/19 14:02:47;;;;;;;3.40;1.13;;;;;;;;;;5071825;28;20131;-63
2021/11/19 14:05:18;;;;;;;5.53;1.25;;;;;;;;;;5055992;28;20089;-64
2021/11/19 14:08:04;;;;;;;3.72;1.15;;;;;;;;;;5054865;28;20575;-61
2021/11/19 14:10:33;;;;;;;7.75;1.23;;;;;;;;;;5072871;28;20039;-64
2021/11/19 14:13:07;;;;;;;6.97;1.27;;;;;;;;;;5072549;28;20025;-63
2021/11/19 14:15:33;;;;;;;7.05;1.30;;;;;;;;;;5072644;28;20048;-63
2021/11/19 14:18:07;;;;;;;4.00;1.00;;;;;;;;;;5067705;28;20070;-63
2021/11/19 14:23:30;;;;;;;5.43;1.08;;;;;;;;;;5052574;28;20086;-63
2021/11/19 14:26:01;;;;;;;2.83;1.00;;;;;;;;;;5034308;28;20487;-63
2021/11/19 14:28:34;;;;;;;5.25;1.30;;;;;;;;;;5052399;28;20048;-63
2021/11/19 14:31:03;;;;;;;4.00;0.70;;;;;;;;;;5052180;28;20021;-63
2021/11/19 14:33:37;;;;;;;5.45;1.30;;;;;;;;;;5052516;28;20028;-63
2021/11/19 14:36:15;;;;;;;5.32;1.13;;;;;;;;;;5060428;28;20032;-63
2021/11/19 14:38:43;;;;;;;6.85;1.13;;;;;;;;;;5072587;28;20021;-64
2021/11/19 14:41:21;;;;;;;3.65;1.10;;;;;;;;;;5072394;28;20146;-64
2021/11/19 14:43:48;;;;;;;3.50;1.13;;;;;;;;;;5055096;28;20170;-65
2021/11/19 14:46:17;;;;;;;4.35;1.20;;;;;;;;;;5058741;28;20065;-65
2021/11/19 14:48:43;;;;;;;4.78;1.00;;;;;;;;;;5076334;28;20055;-64
2021/11/19 14:51:28;;;;;;;6.05;1.10;;;;;;;;;;5058768;28;20432;-64
2021/11/19 14:53:56;;;;;;;5.15;1.23;;;;;;;;;;5076397;28;20025;-64
2021/11/19 14:56:22;;;;;;;3.90;1.10;;;;;;;;;;5076379;28;20033;-64
2021/11/19 14:59:00;;;;;;;1.45;0.80;;;;;;;;;;5076507;28;20388;-64